createdAt,value
2023-03-21T00:00:41.515Z,77.26
2023-03-21T00:01:41.496Z,76.85
2023-03-21T00:02:41.548Z,77.16
2023-03-21T00:03:41.618Z,77.16
2023-03-21T00:04:51.337Z,77.36
2023-03-21T00:05:42.055Z,77.36
2023-03-21T00:06:41.437Z,77.47
2023-03-21T00:07:41.429Z,77.57
2023-03-21T00:08:41.422Z,77.57
2023-03-21T00:09:41.407Z,77.36
2023-03-21T00:10:43.790Z,77.16
2023-03-21T00:11:41.376Z,77.16
2023-03-21T00:12:41.357Z,77.26
2023-03-21T00:13:41.338Z,77.36
2023-03-21T00:14:41.343Z,77.47
2023-03-21T00:15:51.216Z,77.67
2023-03-21T00:16:41.485Z,77.57
2023-03-21T00:17:41.284Z,77.36
2023-03-21T00:18:41.310Z,77.67
2023-03-21T00:19:41.304Z,77.57
2023-03-21T00:20:41.249Z,77.67
2023-03-21T00:21:59.270Z,77.77
2023-03-21T00:22:41.228Z,77.67
2023-03-21T00:23:41.205Z,77.77
2023-03-21T00:24:41.211Z,77.36
2023-03-21T00:25:41.196Z,77.57
2023-03-21T00:26:41.177Z,77.57
2023-03-21T00:28:01.117Z,77.57
2023-03-21T00:28:42.151Z,77.26
2023-03-21T00:29:41.180Z,77.26
2023-03-21T00:30:41.116Z,77.06
2023-03-21T00:31:41.111Z,77.47
2023-03-21T00:32:54.994Z,77.36
2023-03-21T00:33:41.081Z,77.36
2023-03-21T00:34:59.679Z,77.36
2023-03-21T00:35:58.357Z,77.47
2023-03-21T00:36:42.111Z,77.36
2023-03-21T00:37:41.049Z,77.47
2023-03-21T00:38:41.022Z,77.26
2023-03-21T00:39:41.016Z,77.47
2023-03-21T00:40:48.837Z,77.47
2023-03-21T00:41:43.439Z,77.47
2023-03-21T00:42:40.972Z,77.57
2023-03-21T00:43:40.941Z,77.67
2023-03-21T00:44:40.933Z,77.36
2023-03-21T00:45:40.932Z,77.47
2023-03-21T00:46:48.980Z,77.36
2023-03-21T00:47:41.075Z,77.67
2023-03-21T00:48:40.887Z,77.61
2023-03-21T00:49:40.874Z,77.47
2023-03-21T00:50:40.909Z,77.67
2023-03-21T00:51:40.896Z,77.50
2023-03-21T00:52:41.475Z,77.61
2023-03-21T00:53:40.811Z,77.50
2023-03-21T00:54:40.809Z,77.40
2023-03-21T00:55:40.805Z,77.40
2023-03-21T00:56:40.782Z,77.50
2023-03-21T00:57:42.302Z,77.50
2023-03-21T00:58:40.754Z,77.91
2023-03-21T00:59:40.740Z,77.91
2023-03-21T01:00:40.834Z,78.02
2023-03-21T01:01:40.773Z,77.71
2023-03-21T01:02:41.918Z,77.81
2023-03-21T01:03:40.692Z,77.40
2023-03-21T01:04:40.677Z,77.50
2023-03-21T01:05:40.673Z,77.50
2023-03-21T01:06:40.667Z,77.50
2023-03-21T01:07:40.634Z,77.61
2023-03-21T01:08:51.775Z,77.57
2023-03-21T01:09:41.604Z,78.12
2023-03-21T01:10:40.611Z,77.91
2023-03-21T01:11:40.577Z,77.61
2023-03-21T01:12:40.573Z,77.91
2023-03-21T01:13:44.215Z,77.81
2023-03-21T01:14:40.549Z,77.81
2023-03-21T01:15:40.541Z,77.81
2023-03-21T01:16:40.740Z,77.77
2023-03-21T01:17:40.513Z,77.77
2023-03-21T01:18:40.492Z,77.57
2023-03-21T01:19:51.258Z,77.47
2023-03-21T01:20:40.490Z,77.16
2023-03-21T01:21:40.466Z,77.06
2023-03-21T01:22:40.483Z,77.06
2023-03-21T01:23:40.426Z,77.16
2023-03-21T01:24:52.093Z,76.85
2023-03-21T01:25:41.415Z,76.95
2023-03-21T01:26:40.383Z,76.85
2023-03-21T01:27:40.370Z,76.85
2023-03-21T01:28:40.355Z,76.81
2023-03-21T01:29:40.340Z,76.81
2023-03-21T01:30:42.077Z,76.81
2023-03-21T01:31:40.391Z,76.92
2023-03-21T01:32:40.309Z,76.72
2023-03-21T01:33:40.303Z,76.92
2023-03-21T01:34:40.280Z,76.75
2023-03-21T01:35:50.189Z,76.92
2023-03-21T01:36:41.280Z,76.51
2023-03-21T01:37:40.247Z,76.92
2023-03-21T01:38:40.258Z,76.72
2023-03-21T01:39:40.215Z,76.92
2023-03-21T01:40:40.240Z,76.92
2023-03-21T01:41:43.284Z,77.12
2023-03-21T01:42:40.179Z,76.44
2023-03-21T01:43:40.173Z,76.75
2023-03-21T01:44:40.149Z,77.16
2023-03-21T01:45:40.414Z,76.95
2023-03-21T01:46:51.578Z,76.95
2023-03-21T01:47:40.175Z,77.23
2023-03-21T01:48:40.099Z,77.43
2023-03-21T01:49:40.097Z,78.35
2023-03-21T01:50:40.078Z,78.15
2023-03-21T01:51:40.072Z,78.45
2023-03-21T01:52:40.100Z,77.53
2023-03-21T01:53:40.029Z,77.73
2023-03-21T01:54:40.038Z,77.57
2023-03-21T01:55:40.243Z,77.77
2023-03-21T01:56:40.004Z,77.87
2023-03-21T01:57:49.218Z,77.98
2023-03-21T01:58:40.986Z,77.87
2023-03-21T01:59:39.956Z,77.87
2023-03-21T02:00:40.010Z,77.98
2023-03-21T02:01:39.946Z,78.39
2023-03-21T02:02:39.906Z,78.19
2023-03-21T02:03:39.973Z,77.47
2023-03-21T02:04:39.888Z,77.36
2023-03-21T02:05:39.999Z,76.95
2023-03-21T02:06:39.881Z,77.26
2023-03-21T02:07:39.845Z,76.95
2023-03-21T02:08:40.143Z,77.06
2023-03-21T02:09:39.824Z,76.85
2023-03-21T02:10:39.828Z,76.95
2023-03-21T02:11:39.809Z,77.26
2023-03-21T02:12:39.776Z,76.95
2023-03-21T02:13:39.767Z,77.36
2023-03-21T02:14:39.760Z,77.16
2023-03-21T02:15:39.740Z,77.06
2023-03-21T02:16:39.824Z,77.26
2023-03-21T02:17:39.726Z,77.77
2023-03-21T02:18:39.709Z,77.87
2023-03-21T02:19:51.002Z,78.19
2023-03-21T02:20:39.681Z,78.39
2023-03-21T02:21:39.693Z,78.28
2023-03-21T02:22:39.649Z,78.59
2023-03-21T02:23:39.654Z,78.70
2023-03-21T02:24:41.075Z,78.70
2023-03-21T02:25:39.902Z,79.11
2023-03-21T02:26:42.915Z,79.00
2023-03-21T02:27:39.587Z,79.14
2023-03-21T02:28:39.580Z,78.94
2023-03-21T02:29:39.564Z,78.53
2023-03-21T02:30:50.734Z,79.14
2023-03-21T02:31:39.603Z,78.94
2023-03-21T02:32:39.516Z,78.94
2023-03-21T02:33:39.503Z,79.35
2023-03-21T02:34:39.500Z,80.47
2023-03-21T02:35:47.183Z,80.47
2023-03-21T02:39:38.778Z,79.86
2023-03-21T02:40:01.186Z,79.72
2023-03-21T02:41:03.428Z,79.31
2023-03-21T02:42:01.200Z,79.72
2023-03-21T02:43:01.592Z,79.82
2023-03-21T02:44:01.138Z,80.33
2023-03-21T02:45:01.131Z,80.23
2023-03-21T02:46:01.125Z,79.72
2023-03-21T02:47:06.038Z,79.82
2023-03-21T02:48:02.128Z,80.23
2023-03-21T02:49:01.099Z,79.45
2023-03-21T02:50:01.058Z,79.00
2023-03-21T02:51:01.046Z,78.70
2023-03-21T02:52:12.258Z,79.14
2023-03-21T02:53:01.047Z,78.42
2023-03-21T02:54:24.858Z,78.70
2023-03-21T02:55:01.023Z,79.35
2023-03-21T02:56:00.991Z,79.45
2023-03-21T02:57:00.988Z,79.14
2023-03-21T02:58:11.710Z,78.63
2023-03-21T02:59:01.941Z,78.74
2023-03-21T03:00:10.654Z,78.32
2023-03-21T03:01:00.923Z,78.32
2023-03-21T03:02:00.916Z,78.02
2023-03-21T03:03:09.269Z,78.02
2023-03-21T03:04:00.940Z,78.74
2023-03-21T03:05:00.876Z,80.07
2023-03-21T03:06:00.845Z,80.37
2023-03-21T03:07:00.855Z,80.37
2023-03-21T03:08:00.828Z,79.96
2023-03-21T03:09:02.955Z,79.35
2023-03-21T03:10:00.823Z,78.63
2023-03-21T03:11:00.789Z,78.94
2023-03-21T03:12:00.806Z,79.04
2023-03-21T03:13:00.759Z,79.14
2023-03-21T03:14:15.574Z,79.14
2023-03-21T03:15:03.970Z,79.55
2023-03-21T03:16:00.770Z,80.78
2023-03-21T03:17:00.758Z,81.50
2023-03-21T03:18:00.699Z,81.71
2023-03-21T03:19:00.691Z,82.01
2023-03-21T03:20:07.263Z,81.23
2023-03-21T03:21:00.655Z,80.31
2023-03-21T03:22:00.643Z,80.41
2023-03-21T03:23:00.639Z,80.82
2023-03-21T03:24:00.610Z,80.21
2023-03-21T03:25:04.822Z,80.31
2023-03-21T03:26:00.606Z,81.13
2023-03-21T03:27:00.575Z,80.82
2023-03-21T03:28:00.572Z,81.02
2023-03-21T03:29:00.561Z,80.92
2023-03-21T03:30:00.562Z,81.16
2023-03-21T03:31:09.114Z,81.27
2023-03-21T03:32:01.542Z,81.57
2023-03-21T03:33:00.513Z,80.96
2023-03-21T03:34:00.474Z,81.27
2023-03-21T03:35:00.464Z,81.16
2023-03-21T03:36:05.423Z,81.06
2023-03-21T03:37:00.493Z,81.37
2023-03-21T03:38:00.437Z,82.29
2023-03-21T03:39:00.408Z,83.63
2023-03-21T03:40:00.394Z,83.98
2023-03-21T03:41:00.386Z,83.67
2023-03-21T03:42:27.616Z,84.49
2023-03-21T03:43:01.382Z,85.11
2023-03-21T03:44:00.346Z,85.46
2023-03-21T03:45:00.329Z,85.55
2023-03-21T03:46:00.342Z,85.46
2023-03-21T03:47:00.305Z,85.35
2023-03-21T03:48:00.401Z,85.25
2023-03-21T03:49:00.288Z,85.04
2023-03-21T03:50:00.274Z,85.49
2023-03-21T03:51:00.254Z,86.42
2023-03-21T03:52:00.236Z,86.77
2023-03-21T03:53:02.961Z,87.18
2023-03-21T03:54:00.216Z,87.18
2023-03-21T03:55:00.203Z,87.18
2023-03-21T03:56:00.229Z,87.49
2023-03-21T03:57:00.174Z,87.49
2023-03-21T03:58:00.169Z,87.49
2023-03-21T03:59:00.146Z,87.59
2023-03-21T04:00:00.132Z,87.69
2023-03-21T04:01:00.131Z,87.94
2023-03-21T04:02:00.271Z,88.14
2023-03-21T04:03:00.247Z,88.14
2023-03-21T04:04:12.363Z,88.35
2023-03-21T04:05:00.098Z,88.96
2023-03-21T04:06:00.774Z,89.31
2023-03-21T04:07:00.063Z,89.31
2023-03-21T04:08:00.079Z,89.11
2023-03-21T04:09:01.659Z,88.90
2023-03-21T04:10:00.013Z,88.80
2023-03-21T04:11:00.994Z,88.70
2023-03-21T04:11:59.975Z,88.90
2023-03-21T04:12:59.985Z,89.62
2023-03-21T04:13:59.958Z,89.97
2023-03-21T04:15:09.582Z,90.59
2023-03-21T04:15:59.977Z,91.00
2023-03-21T04:16:59.930Z,91.36
2023-03-21T04:17:59.948Z,91.46
2023-03-21T04:18:59.892Z,91.36
2023-03-21T04:20:11.011Z,91.00
2023-03-21T04:20:59.869Z,91.21
2023-03-21T04:21:59.848Z,91.11
2023-03-21T04:22:59.854Z,91.05
2023-03-21T04:23:59.841Z,90.94
2023-03-21T04:25:00.635Z,91.15
2023-03-21T04:25:59.805Z,91.66
2023-03-21T04:26:59.786Z,92.02
2023-03-21T04:27:59.790Z,92.12
2023-03-21T04:28:59.757Z,91.91
2023-03-21T04:29:59.750Z,92.02
2023-03-21T04:31:05.216Z,92.12
2023-03-21T04:31:59.824Z,92.16
2023-03-21T04:32:59.722Z,92.37
2023-03-21T04:33:59.729Z,92.27
2023-03-21T04:34:59.682Z,92.37
2023-03-21T04:35:59.670Z,92.37
2023-03-21T04:36:59.669Z,92.47
2023-03-21T04:37:59.669Z,92.47
2023-03-21T04:38:59.624Z,92.57
2023-03-21T04:39:59.608Z,92.99
2023-03-21T04:40:59.603Z,93.13
2023-03-21T04:41:59.591Z,93.24
2023-03-21T04:42:59.632Z,92.88
2023-03-21T04:43:59.569Z,92.68
2023-03-21T04:44:59.548Z,92.99
2023-03-21T04:45:59.618Z,93.13
2023-03-21T04:46:59.525Z,93.24
2023-03-21T04:47:59.615Z,92.88
2023-03-21T04:48:59.521Z,92.88
2023-03-21T04:49:59.526Z,92.78
2023-03-21T04:50:59.471Z,92.53
2023-03-21T04:51:59.461Z,92.47
2023-03-21T04:52:59.477Z,92.33
2023-03-21T04:53:59.456Z,92.16
2023-03-21T04:54:59.417Z,92.16
2023-03-21T04:55:59.402Z,92.02
2023-03-21T04:56:59.386Z,91.91
2023-03-21T04:57:59.379Z,91.81
2023-03-21T04:58:59.382Z,91.60
2023-03-21T04:59:59.344Z,91.71
2023-03-21T05:00:59.392Z,91.91
2023-03-21T05:01:59.328Z,91.96
2023-03-21T05:02:59.309Z,92.12
2023-03-21T05:03:59.410Z,92.22
2023-03-21T05:04:59.286Z,92.33
2023-03-21T05:05:59.288Z,92.33
2023-03-21T05:06:59.259Z,92.22
2023-03-21T05:07:59.237Z,92.33
2023-03-21T05:08:59.247Z,92.12
2023-03-21T05:10:01.253Z,91.87
2023-03-21T05:10:59.210Z,91.77
2023-03-21T05:11:59.201Z,91.66
2023-03-21T05:12:59.177Z,91.66
2023-03-21T05:13:59.183Z,91.56
2023-03-21T05:14:59.149Z,91.46
2023-03-21T05:15:59.149Z,91.46
2023-03-21T05:16:59.189Z,91.36
2023-03-21T05:17:59.112Z,91.31
2023-03-21T05:18:59.166Z,91.21
2023-03-21T05:19:59.087Z,91.21
2023-03-21T05:20:59.078Z,91.11
2023-03-21T05:21:59.081Z,91.56
2023-03-21T05:22:59.049Z,91.46
2023-03-21T05:23:59.056Z,91.46
2023-03-21T05:24:59.020Z,91.31
2023-03-21T05:25:59.023Z,91.36
2023-03-21T05:27:01.223Z,91.15
2023-03-21T05:27:58.977Z,91.05
2023-03-21T05:28:58.993Z,91.25
2023-03-21T05:29:58.961Z,91.36
2023-03-21T05:30:59.016Z,91.25
2023-03-21T05:31:58.930Z,91.66
2023-03-21T05:32:58.919Z,92.02
2023-03-21T05:33:58.934Z,92.53
2023-03-21T05:34:58.889Z,92.88
2023-03-21T05:35:58.901Z,93.30
2023-03-21T05:36:58.861Z,93.50
2023-03-21T05:37:58.970Z,93.71
2023-03-21T05:38:58.840Z,93.85
2023-03-21T05:39:58.837Z,93.65
2023-03-21T05:40:58.810Z,93.50
2023-03-21T05:41:58.796Z,93.40
2023-03-21T05:42:58.791Z,93.30
2023-03-21T05:43:58.770Z,93.30
2023-03-21T05:44:58.779Z,93.40
2023-03-21T05:45:58.785Z,93.50
2023-03-21T05:46:58.735Z,93.50
2023-03-21T05:47:58.730Z,93.40
2023-03-21T05:48:58.708Z,93.50
2023-03-21T05:49:58.731Z,93.81
2023-03-21T05:50:58.682Z,93.71
2023-03-21T05:51:58.668Z,93.71
2023-03-21T05:52:58.653Z,93.60
2023-03-21T05:53:58.663Z,93.77
2023-03-21T05:54:58.644Z,93.81
2023-03-21T05:55:58.615Z,93.66
2023-03-21T05:56:58.613Z,93.81
2023-03-21T05:57:58.598Z,93.91
2023-03-21T05:58:58.592Z,93.91
2023-03-21T05:59:58.594Z,93.71
2023-03-21T06:00:58.554Z,93.66
2023-03-21T06:01:58.541Z,93.35
2023-03-21T06:02:58.564Z,93.25
2023-03-21T06:03:58.601Z,93.35
2023-03-21T06:04:58.530Z,93.25
2023-03-21T06:05:58.498Z,93.11
2023-03-21T06:06:58.474Z,92.59
2023-03-21T06:07:58.457Z,92.80
2023-03-21T06:08:58.441Z,92.80
2023-03-21T06:09:58.469Z,92.90
2023-03-21T06:10:58.423Z,92.44
2023-03-21T06:11:58.412Z,91.93
2023-03-21T06:12:58.399Z,91.31
2023-03-21T06:13:58.379Z,91.31
2023-03-21T06:14:58.389Z,91.31
2023-03-21T06:15:58.381Z,91.06
2023-03-21T06:16:58.350Z,90.75
2023-03-21T06:17:58.334Z,90.86
2023-03-21T06:18:58.314Z,90.75
2023-03-21T06:19:58.326Z,90.45
2023-03-21T06:20:58.289Z,90.00
2023-03-21T06:21:58.272Z,89.54
2023-03-21T06:22:58.274Z,89.03
2023-03-21T06:23:58.252Z,88.72
2023-03-21T06:24:58.256Z,88.53
2023-03-21T06:25:58.242Z,86.63
2023-03-21T06:26:58.208Z,83.64
2023-03-21T06:27:58.193Z,80.76
2023-03-21T06:28:58.189Z,77.89
2023-03-21T06:29:58.218Z,75.85
2023-03-21T06:30:58.175Z,73.54
2023-03-21T06:31:58.143Z,71.53
2023-03-21T06:32:58.130Z,70.28
2023-03-21T06:33:58.111Z,69.33
2023-03-21T06:34:58.122Z,68.45
2023-03-21T06:35:58.121Z,66.86
2023-03-21T06:36:58.076Z,65.52
2023-03-21T06:37:58.077Z,64.98
2023-03-21T06:38:58.088Z,63.90
2023-03-21T06:39:58.049Z,63.17
2023-03-21T06:40:58.022Z,62.63
2023-03-21T06:41:58.060Z,61.99
2023-03-21T06:42:58.013Z,61.59
2023-03-21T06:43:57.984Z,61.36
2023-03-21T06:44:58.008Z,60.96
2023-03-21T06:45:57.957Z,60.75
2023-03-21T06:46:58.008Z,60.29
2023-03-21T06:47:58.004Z,59.66
2023-03-21T06:48:57.927Z,59.18
2023-03-21T06:49:57.912Z,59.05
2023-03-21T06:50:57.912Z,59.25
2023-03-21T06:51:57.875Z,58.85
2023-03-21T06:52:57.862Z,58.95
2023-03-21T06:53:57.845Z,58.52
2023-03-21T06:54:57.835Z,57.51
2023-03-21T06:55:57.836Z,58.52
2023-03-21T06:56:57.813Z,57.98
2023-03-21T06:57:57.823Z,57.68
2023-03-21T06:58:57.793Z,57.28
2023-03-21T06:59:57.774Z,57.35
2023-03-21T07:00:57.835Z,56.24
2023-03-21T07:01:57.752Z,56.68
2023-03-21T07:02:57.804Z,57.56
2023-03-21T07:03:57.720Z,57.87
2023-03-21T07:04:57.711Z,57.94
2023-03-21T07:05:57.715Z,57.78
2023-03-21T07:06:57.688Z,56.32
2023-03-21T07:07:57.670Z,55.69
2023-03-21T07:08:57.649Z,55.46
2023-03-21T07:09:57.643Z,55.43
2023-03-21T07:10:57.637Z,54.71
2023-03-21T07:11:57.607Z,53.70
2023-03-21T07:12:57.608Z,53.45
2023-03-21T07:13:57.603Z,55.04
2023-03-21T07:14:57.574Z,54.61
2023-03-21T07:15:57.571Z,54.81
2023-03-21T07:16:57.541Z,55.16
2023-03-21T07:17:57.530Z,56.93
2023-03-21T07:18:57.534Z,56.37
2023-03-21T07:19:57.518Z,55.74
2023-03-21T07:20:57.508Z,56.48
2023-03-21T07:21:57.484Z,56.37
2023-03-21T07:22:57.462Z,56.17
2023-03-21T07:23:57.454Z,57.26
2023-03-21T07:25:04.766Z,57.82
2023-03-21T07:25:57.485Z,60.72
2023-03-21T07:26:57.410Z,64.01
2023-03-21T07:27:57.396Z,65.70
2023-03-21T07:28:57.388Z,66.68
2023-03-21T07:29:57.405Z,67.49
2023-03-21T07:30:57.376Z,66.88
2023-03-21T07:31:57.430Z,67.39
2023-03-21T07:32:57.329Z,65.44
2023-03-21T07:33:57.315Z,63.98
2023-03-21T07:34:57.303Z,62.71
2023-03-21T07:35:57.335Z,62.71
2023-03-21T07:36:57.279Z,62.53
2023-03-21T07:37:57.260Z,63.45
2023-03-21T07:38:57.253Z,62.98
2023-03-21T07:39:57.236Z,62.17
2023-03-21T07:40:57.241Z,62.30
2023-03-21T07:41:57.216Z,62.43
2023-03-21T07:42:57.195Z,63.24
2023-03-21T07:43:57.184Z,61.51
2023-03-21T07:44:57.169Z,60.69
2023-03-21T07:45:57.258Z,60.93
2023-03-21T07:46:57.141Z,60.77
2023-03-21T07:47:57.157Z,60.20
2023-03-21T07:48:57.114Z,59.63
2023-03-21T07:49:57.099Z,59.83
2023-03-21T07:50:57.106Z,59.34
2023-03-21T07:51:57.077Z,60.39
2023-03-21T07:52:57.059Z,60.36
2023-03-21T07:53:57.050Z,58.78
2023-03-21T07:54:57.032Z,58.76
2023-03-21T07:55:57.040Z,57.95
2023-03-21T07:56:57.007Z,58.94
2023-03-21T07:57:56.993Z,60.03
2023-03-21T07:58:56.982Z,59.39
2023-03-21T07:59:56.978Z,58.89
2023-03-21T08:00:56.962Z,58.86
2023-03-21T08:01:57.047Z,58.43
2023-03-21T08:02:58.866Z,57.89
2023-03-21T08:03:56.924Z,57.82
2023-03-21T08:04:56.920Z,56.98
2023-03-21T08:05:56.902Z,56.43
2023-03-21T08:06:56.870Z,56.96
2023-03-21T08:07:56.880Z,57.52
2023-03-21T08:08:56.843Z,58.54
2023-03-21T08:09:56.828Z,60.31
2023-03-21T08:10:56.825Z,61.69
2023-03-21T08:11:56.830Z,62.23
2023-03-21T08:12:56.792Z,63.28
2023-03-21T08:13:56.781Z,63.68
2023-03-21T08:14:58.859Z,64.35
2023-03-21T08:15:56.757Z,65.22
2023-03-21T08:16:56.863Z,65.70
2023-03-21T08:17:56.748Z,65.36
2023-03-21T08:18:56.714Z,64.59
2023-03-21T08:19:56.726Z,64.15
2023-03-21T08:20:56.687Z,63.45
2023-03-21T08:21:56.676Z,62.91
2023-03-21T08:22:56.679Z,63.55
2023-03-21T08:23:56.650Z,62.48
2023-03-21T08:24:56.652Z,61.99
2023-03-21T08:25:56.630Z,62.94
2023-03-21T08:26:56.623Z,63.17
2023-03-21T08:27:56.591Z,64.42
2023-03-21T08:28:56.593Z,63.24
2023-03-21T08:29:56.580Z,62.60
2023-03-21T08:30:56.618Z,63.71
2023-03-21T08:31:56.548Z,64.65
2023-03-21T08:32:58.789Z,65.19
2023-03-21T08:33:56.548Z,65.26
2023-03-21T08:34:56.525Z,64.79
2023-03-21T08:35:56.516Z,64.90
2023-03-21T08:36:56.505Z,63.72
2023-03-21T08:37:56.469Z,62.68
2023-03-21T08:38:56.446Z,63.08
2023-03-21T08:39:56.495Z,63.15
2023-03-21T08:40:58.550Z,62.85
2023-03-21T08:41:56.448Z,62.75
2023-03-21T08:42:56.390Z,62.57
2023-03-21T08:43:56.382Z,63.11
2023-03-21T08:44:56.374Z,63.32
2023-03-21T08:45:56.389Z,63.29
2023-03-21T08:46:56.341Z,62.95
2023-03-21T08:47:56.434Z,62.88
2023-03-21T08:48:56.311Z,63.08
2023-03-21T08:49:59.032Z,63.42
2023-03-21T08:50:56.289Z,62.54
2023-03-21T08:51:56.278Z,62.31
2023-03-21T08:52:56.268Z,62.62
2023-03-21T08:53:56.251Z,62.01
2023-03-21T08:54:56.236Z,63.01
2023-03-21T08:55:56.237Z,64.39
2023-03-21T08:56:56.213Z,65.10
2023-03-21T08:57:56.244Z,65.54
2023-03-21T08:58:56.184Z,66.12
2023-03-21T08:59:56.182Z,65.20
2023-03-21T09:00:56.170Z,65.94
2023-03-21T09:01:56.163Z,65.81
2023-03-21T09:02:56.166Z,65.51
2023-03-21T09:03:56.121Z,66.12
2023-03-21T09:04:56.223Z,65.37
2023-03-21T09:05:56.124Z,64.61
2023-03-21T09:06:56.084Z,63.86
2023-03-21T09:07:56.076Z,62.95
2023-03-21T09:08:56.054Z,64.17
2023-03-21T09:10:15.056Z,63.63
2023-03-21T09:10:56.043Z,63.66
2023-03-21T09:11:56.005Z,63.86
2023-03-21T09:12:56.014Z,63.89
2023-03-21T09:13:55.988Z,64.64
2023-03-21T09:14:55.961Z,64.61
2023-03-21T09:15:55.994Z,65.07
2023-03-21T09:16:55.940Z,65.65
2023-03-21T09:17:55.933Z,64.98
2023-03-21T09:18:55.917Z,64.24
2023-03-21T09:19:55.902Z,63.73
2023-03-21T09:20:55.900Z,64.47
2023-03-21T09:21:55.898Z,64.91
2023-03-21T09:22:55.856Z,64.58
2023-03-21T09:23:55.861Z,64.61
2023-03-21T09:24:55.824Z,65.95
2023-03-21T09:25:55.832Z,64.50
2023-03-21T09:26:55.795Z,64.81
2023-03-21T09:27:55.809Z,64.44
2023-03-21T09:28:55.772Z,63.53
2023-03-21T09:29:55.758Z,63.20
2023-03-21T09:30:55.803Z,63.43
2023-03-21T09:31:55.742Z,63.86
2023-03-21T09:32:56.028Z,63.96
2023-03-21T09:33:55.712Z,64.91
2023-03-21T09:34:55.691Z,64.94
2023-03-21T09:35:55.712Z,65.14
2023-03-21T09:36:55.662Z,64.50
2023-03-21T09:37:55.669Z,64.58
2023-03-21T09:38:55.639Z,64.50
2023-03-21T09:39:55.660Z,64.58
2023-03-21T09:40:55.622Z,64.17
2023-03-21T09:41:55.597Z,64.47
2023-03-21T09:42:55.586Z,63.63
2023-03-21T09:43:55.568Z,64.04
2023-03-21T09:44:55.554Z,63.81
2023-03-21T09:45:55.563Z,63.63
2023-03-21T09:46:55.614Z,63.53
2023-03-21T09:47:55.547Z,63.23
2023-03-21T09:48:57.499Z,63.81
2023-03-21T09:50:01.707Z,63.32
2023-03-21T09:50:55.508Z,63.23
2023-03-21T09:51:55.460Z,63.83
2023-03-21T09:52:55.450Z,62.92
2023-03-21T09:53:57.150Z,63.86
2023-03-21T09:54:55.419Z,64.30
2023-03-21T09:55:55.433Z,64.61
2023-03-21T09:56:55.394Z,63.35
2023-03-21T09:57:55.381Z,64.10
2023-03-21T09:58:55.374Z,64.50
2023-03-21T09:59:55.359Z,64.30
2023-03-21T10:00:55.388Z,64.27
2023-03-21T10:01:55.344Z,63.86
2023-03-21T10:02:57.438Z,63.83
2023-03-21T10:03:55.304Z,63.23
2023-03-21T10:04:55.345Z,64.37
2023-03-21T10:05:55.297Z,64.78
2023-03-21T10:06:55.266Z,64.20
2023-03-21T10:07:55.247Z,63.89
2023-03-21T10:08:57.087Z,64.36
2023-03-21T10:09:55.245Z,64.56
2023-03-21T10:10:55.222Z,65.27
2023-03-21T10:11:55.196Z,64.87
2023-03-21T10:12:55.181Z,65.14
2023-03-21T10:13:55.169Z,64.46
2023-03-21T10:14:57.550Z,65.00
2023-03-21T10:15:55.150Z,65.37
2023-03-21T10:16:55.128Z,65.04
2023-03-21T10:17:55.108Z,65.14
2023-03-21T10:18:55.098Z,64.53
2023-03-21T10:19:55.084Z,65.31
2023-03-21T10:20:55.080Z,65.62
2023-03-21T10:22:03.832Z,64.43
2023-03-21T10:22:56.072Z,63.75
2023-03-21T10:23:55.030Z,64.15
2023-03-21T10:24:55.010Z,64.36
2023-03-21T10:25:55.156Z,64.03
2023-03-21T10:26:54.990Z,63.72
2023-03-21T10:27:54.975Z,64.26
2023-03-21T10:28:54.982Z,64.76
2023-03-21T10:29:54.948Z,64.87
2023-03-21T10:30:54.963Z,65.17
2023-03-21T10:31:55.023Z,65.48
2023-03-21T10:32:54.983Z,64.76
2023-03-21T10:33:54.912Z,65.37
2023-03-21T10:35:54.948Z,66.42
2023-03-21T10:36:54.971Z,65.71
2023-03-21T10:37:54.853Z,65.71
2023-03-21T10:38:54.841Z,65.81
2023-03-21T10:39:54.828Z,66.12
2023-03-21T10:40:54.828Z,65.30
2023-03-21T10:41:54.833Z,65.61
2023-03-21T10:42:54.782Z,65.81
2023-03-21T10:43:54.768Z,65.71
2023-03-21T10:44:54.759Z,65.74
2023-03-21T10:45:55.024Z,65.54
2023-03-21T10:46:55.100Z,65.74
2023-03-21T10:47:54.931Z,65.64
2023-03-21T10:48:54.751Z,65.54
2023-03-21T10:50:10.979Z,65.23
2023-03-21T10:50:55.792Z,65.44
2023-03-21T10:51:54.678Z,65.54
2023-03-21T10:52:54.648Z,66.05
2023-03-21T10:53:54.636Z,66.05
2023-03-21T10:54:54.620Z,66.15
2023-03-21T10:55:54.610Z,66.25
2023-03-21T10:56:54.606Z,66.55
2023-03-21T10:57:54.598Z,66.02
2023-03-21T10:58:54.576Z,65.41
2023-03-21T10:59:54.562Z,65.58
2023-03-21T11:00:54.560Z,65.71
2023-03-21T11:01:54.636Z,66.12
2023-03-21T11:02:54.624Z,66.12
2023-03-21T11:03:54.502Z,66.02
2023-03-21T11:04:54.490Z,65.91
2023-03-21T11:05:54.475Z,65.81
2023-03-21T11:06:54.480Z,65.33
2023-03-21T11:07:54.442Z,66.05
2023-03-21T11:08:54.449Z,66.02
2023-03-21T11:09:54.425Z,65.30
2023-03-21T11:10:54.412Z,66.12
2023-03-21T11:11:54.404Z,66.02
2023-03-21T11:12:54.376Z,65.91
2023-03-21T11:13:54.385Z,66.39
2023-03-21T11:14:54.358Z,65.78
2023-03-21T11:15:54.341Z,64.46
2023-03-21T11:16:54.383Z,64.26
2023-03-21T11:17:54.313Z,64.67
2023-03-21T11:18:54.305Z,64.94
2023-03-21T11:19:54.290Z,64.94
2023-03-21T11:20:54.289Z,65.21
2023-03-21T11:21:54.280Z,65.11
2023-03-21T11:22:54.254Z,65.52
2023-03-21T11:23:54.278Z,65.14
2023-03-21T11:24:54.229Z,65.45
2023-03-21T11:25:54.213Z,65.55
2023-03-21T11:26:54.234Z,64.73
2023-03-21T11:27:54.201Z,65.99
2023-03-21T11:28:54.176Z,66.26
2023-03-21T11:29:54.191Z,66.26
2023-03-21T11:30:54.275Z,66.05
2023-03-21T11:31:54.147Z,66.02
2023-03-21T11:32:54.126Z,65.82
2023-03-21T11:33:54.103Z,66.43
2023-03-21T11:34:54.102Z,65.99
2023-03-21T11:35:54.101Z,66.40
2023-03-21T11:36:54.085Z,66.80
2023-03-21T11:37:54.052Z,66.09
2023-03-21T11:38:54.056Z,66.30
2023-03-21T11:39:54.045Z,66.30
2023-03-21T11:40:54.031Z,65.82
2023-03-21T11:41:54.027Z,66.56
2023-03-21T11:42:54.009Z,67.68
2023-03-21T11:43:53.986Z,68.08
2023-03-21T11:44:53.963Z,68.59
2023-03-21T11:45:53.993Z,68.39
2023-03-21T11:46:54.456Z,68.73
2023-03-21T11:47:53.962Z,70.65
2023-03-21T11:48:53.909Z,70.04
2023-03-21T11:50:01.736Z,69.84
2023-03-21T11:50:54.883Z,69.74
2023-03-21T11:51:53.891Z,70.21
2023-03-21T11:52:53.867Z,70.11
2023-03-21T11:53:53.872Z,70.92
2023-03-21T11:54:53.843Z,71.44
2023-03-21T11:55:53.813Z,70.65
2023-03-21T11:56:53.838Z,71.20
2023-03-21T11:57:54.840Z,72.92
2023-03-21T11:58:53.800Z,73.53
2023-03-21T11:59:53.777Z,72.72
2023-03-21T12:00:53.755Z,73.83
2023-03-21T12:01:53.770Z,73.83
2023-03-21T12:02:53.814Z,73.74
2023-03-21T12:03:55.009Z,73.63
2023-03-21T12:04:53.701Z,74.99
2023-03-21T12:05:53.691Z,72.85
2023-03-21T12:06:53.691Z,73.19
2023-03-21T12:07:53.658Z,74.01
2023-03-21T12:08:53.644Z,75.33
2023-03-21T12:09:53.644Z,73.63
2023-03-21T12:10:53.626Z,74.35
2023-03-21T12:11:53.630Z,76.07
2023-03-21T12:12:53.593Z,77.40
2023-03-21T12:13:53.577Z,77.70
2023-03-21T12:14:53.573Z,78.82
2023-03-21T12:15:55.421Z,77.60
2023-03-21T12:16:55.016Z,78.21
2023-03-21T12:17:53.547Z,78.41
2023-03-21T12:18:53.511Z,76.68
2023-03-21T12:19:53.596Z,76.48
2023-03-21T12:20:53.488Z,76.21
2023-03-21T12:21:54.835Z,75.64
2023-03-21T12:22:53.496Z,77.87
2023-03-21T12:23:53.439Z,79.30
2023-03-21T12:24:53.435Z,80.99
2023-03-21T12:25:53.414Z,82.32
2023-03-21T12:26:53.418Z,81.10
2023-03-21T12:27:53.411Z,80.99
2023-03-21T12:28:53.385Z,81.16
2023-03-21T12:29:53.367Z,80.59
2023-03-21T12:30:53.353Z,81.44
2023-03-21T12:31:53.479Z,80.32
2023-03-21T12:32:53.343Z,81.38
2023-03-21T12:33:53.434Z,82.40
2023-03-21T12:34:53.302Z,82.80
2023-03-21T12:35:53.325Z,82.70
2023-03-21T12:36:53.274Z,81.99
2023-03-21T12:37:54.986Z,83.01
2023-03-21T12:38:53.245Z,83.92
2023-03-21T12:39:53.231Z,84.23
2023-03-21T12:40:53.240Z,83.01
2023-03-21T12:41:53.221Z,83.42
2023-03-21T12:42:53.219Z,83.42
2023-03-21T12:43:55.278Z,83.65
2023-03-21T12:44:53.165Z,84.58
2023-03-21T12:45:53.210Z,85.28
2023-03-21T12:46:53.216Z,84.88
2023-03-21T12:47:53.214Z,85.19
2023-03-21T12:48:53.109Z,84.58
2023-03-21T12:49:55.168Z,85.08
2023-03-21T12:50:53.083Z,84.88
2023-03-21T12:51:53.070Z,84.00
2023-03-21T12:52:53.078Z,84.92
2023-03-21T12:53:53.054Z,84.72
2023-03-21T12:54:53.029Z,84.92
2023-03-21T12:55:53.018Z,85.13